Aviation Digital Data Service (ADDS)

Output produced by TAFs form (0503 UTC 27 July 2017)
found at http://www.aviationweather.gov/adds/tafs/
 
KDLH 262328Z 2700/2724 30009KT P6SM SCT060 
     FM270200 33003KT P6SM SKC 
     FM271200 03004KT P6SM SCT250 
     FM271500 06005KT P6SM SCT050 
     FM272100 08006KT P6SM VCSH BKN050